createdAt,value
2022-11-20T00:50:50.597Z,14.17
2022-11-20T01:56:17.399Z,17.47
2022-11-20T01:59:45.071Z,15.03
2022-11-20T08:14:49.122Z,15.33
2022-11-20T08:20:30.503Z,16.97
2022-11-20T08:23:18.141Z,21.40
2022-11-20T08:26:24.727Z,15.90
2022-11-20T08:29:00.766Z,18.73
2022-11-20T08:31:33.448Z,18.87
2022-11-20T08:34:12.916Z,19.77
2022-11-20T08:36:50.951Z,18.03
2022-11-20T08:39:32.608Z,17.20
2022-11-20T08:42:12.893Z,20.70
2022-11-20T08:44:52.417Z,19.10
2022-11-20T08:47:26.999Z,21.03
2022-11-20T08:49:57.596Z,19.30
2022-11-20T08:52:53.753Z,20.10
2022-11-20T08:55:31.837Z,18.50
2022-11-20T08:58:14.964Z,20.83
2022-11-20T09:00:46.652Z,16.73
2022-11-20T09:03:29.979Z,20.03
2022-11-20T09:06:10.956Z,19.07
2022-11-20T09:08:52.781Z,21.07
2022-11-20T09:11:32.515Z,19.07
2022-11-20T09:14:10.498Z,17.37
2022-11-20T09:16:42.079Z,17.93
2022-11-20T09:19:35.809Z,18.13
2022-11-20T09:22:12.708Z,18.03
2022-11-20T09:24:51.436Z,20.47
2022-11-20T09:27:26.341Z,17.73
2022-11-20T09:30:01.946Z,16.40
2022-11-20T09:32:34.994Z,16.80
2022-11-20T09:35:13.801Z,17.67
2022-11-20T09:37:54.461Z,18.27
2022-11-20T09:40:29.191Z,16.13
2022-11-20T09:42:59.588Z,17.63
2022-11-20T09:45:37.657Z,17.63
2022-11-20T09:48:31.556Z,21.80
2022-11-20T09:51:13.864Z,18.30
2022-11-20T09:53:47.809Z,22.33
2022-11-20T09:56:30.869Z,16.27
2022-11-20T09:59:06.530Z,18.83
2022-11-20T10:01:42.630Z,18.60
2022-11-20T10:04:19.272Z,15.47
2022-11-20T10:07:17.181Z,19.17
2022-11-20T10:09:54.271Z,19.17
2022-11-20T10:12:26.105Z,16.07
2022-11-20T10:15:45.128Z,17.13
2022-11-20T10:18:59.667Z,17.67
2022-11-20T10:22:16.755Z,17.47
2022-11-20T10:24:51.152Z,15.70
2022-11-20T10:27:40.583Z,17.83
2022-11-20T10:30:18.345Z,18.27
2022-11-20T10:32:52.274Z,16.60
2022-11-20T10:35:26.777Z,16.87
2022-11-20T10:38:06.719Z,18.73
2022-11-20T10:40:42.417Z,17.70
2022-11-20T10:43:14.574Z,17.67
2022-11-20T10:45:56.281Z,18.00
2022-11-20T10:48:31.478Z,18.13
2022-11-20T10:51:14.501Z,20.03
2022-11-20T10:53:59.261Z,19.10
2022-11-20T10:56:33.229Z,19.20
2022-11-20T10:59:36.331Z,19.53
2022-11-20T11:02:25.090Z,19.80
2022-11-20T11:05:14.116Z,16.20
2022-11-20T11:07:43.517Z,19.90
2022-11-20T11:10:49.429Z,20.20
2022-11-20T11:13:34.186Z,20.97
2022-11-20T11:17:37.562Z,21.07
2022-11-20T11:20:35.950Z,18.10
2022-11-20T11:23:47.895Z,19.57
2022-11-20T11:26:53.320Z,20.27
2022-11-20T11:29:54.166Z,21.03
2022-11-20T11:32:38.671Z,22.50
2022-11-20T11:35:32.474Z,21.27
2022-11-20T11:38:58.788Z,26.57
2022-11-20T11:59:09.234Z,25.03
2022-11-20T12:01:44.806Z,25.90
2022-11-20T12:08:01.664Z,29.93
2022-11-20T12:10:45.608Z,24.93
2022-11-20T12:13:28.659Z,24.87
2022-11-20T12:16:14.339Z,29.87
2022-11-20T12:18:45.634Z,24.17
2022-11-20T12:21:33.387Z,32.47
2022-11-20T12:48:00.800Z,29.93
2022-11-20T15:03:01.974Z,37.83
2022-11-20T15:05:48.901Z,32.47
2022-11-20T15:08:17.430Z,34.23
2022-11-20T15:10:51.063Z,33.27
2022-11-20T15:13:22.830Z,32.37
2022-11-20T15:15:51.676Z,28.90
2022-11-20T15:18:27.297Z,33.93
2022-11-20T15:20:59.998Z,30.50
2022-11-20T15:23:28.472Z,29.63
2022-11-20T15:25:56.655Z,32.70
2022-11-20T15:28:28.564Z,31.27
2022-11-20T15:30:57.510Z,32.13
2022-11-20T15:33:33.633Z,31.17
2022-11-20T15:36:21.823Z,29.73
2022-11-20T15:38:53.378Z,28.47
2022-11-20T15:42:14.261Z,33.57
2022-11-20T15:52:40.201Z,27.93
2022-11-20T15:56:07.290Z,28.47
2022-11-20T16:07:24.233Z,24.80
2022-11-20T16:10:47.635Z,21.17
2022-11-20T16:14:23.696Z,26.07
2022-11-20T16:21:14.979Z,22.93
2022-11-20T16:24:13.226Z,23.63
2022-11-20T16:27:10.328Z,72.90
2022-11-20T16:29:41.906Z,26.67
2022-11-20T16:32:14.114Z,19.20
2022-11-20T16:34:42.822Z,23.93
2022-11-20T16:38:11.512Z,22.93
2022-11-20T16:40:41.854Z,20.33
2022-11-20T16:43:11.747Z,23.27
2022-11-20T16:45:45.400Z,22.03
2022-11-20T16:48:17.230Z,25.57
2022-11-20T16:50:52.217Z,20.83
2022-11-20T16:53:23.909Z,22.20
2022-11-20T16:55:52.154Z,21.90
2022-11-20T16:58:20.307Z,20.30
2022-11-20T17:00:51.828Z,23.70
2022-11-20T17:03:23.401Z,21.17
2022-11-20T17:05:54.064Z,20.57
2022-11-20T17:08:22.274Z,22.73
2022-11-20T17:10:50.395Z,23.70
2022-11-20T17:13:18.482Z,21.47
2022-11-20T17:15:46.692Z,27.53
2022-11-20T17:18:16.367Z,22.13
2022-11-20T17:20:44.500Z,24.67
2022-11-20T17:23:12.768Z,25.33
2022-11-20T17:25:42.287Z,22.23
2022-11-20T17:28:11.074Z,22.63
2022-11-20T17:30:39.438Z,24.93
2022-11-20T17:33:07.647Z,22.37
2022-11-20T17:35:39.001Z,18.10
2022-11-20T17:38:07.405Z,23.47
2022-11-20T17:40:35.760Z,18.47
2022-11-20T17:43:06.504Z,21.07
2022-11-20T17:45:38.199Z,18.10
2022-11-20T17:48:07.148Z,19.30
2022-11-20T17:50:37.175Z,23.10
2022-11-20T17:53:18.143Z,22.47
2022-11-20T17:56:19.892Z,24.13
2022-11-20T17:58:48.222Z,18.70
2022-11-20T18:01:16.581Z,22.87
2022-11-20T18:03:44.918Z,18.87
2022-11-20T18:06:13.879Z,21.10
2022-11-20T18:08:43.549Z,20.50
2022-11-20T18:11:44.472Z,23.53
2022-11-20T18:14:32.671Z,24.03
2022-11-20T18:17:02.205Z,21.33
2022-11-20T18:19:32.656Z,22.93
2022-11-20T18:22:04.142Z,21.97
2022-11-20T18:24:36.782Z,21.03
2022-11-20T18:27:05.713Z,22.70
2022-11-20T18:29:33.950Z,22.90
2022-11-20T18:32:02.392Z,23.23
2022-11-20T18:34:30.669Z,24.27
2022-11-20T18:36:59.070Z,20.83
2022-11-20T18:39:27.228Z,25.90
2022-11-20T18:42:17.278Z,19.33
2022-11-20T18:44:57.018Z,23.10
2022-11-20T18:47:26.288Z,18.47
2022-11-20T18:49:54.988Z,21.40
2022-11-20T18:52:24.331Z,18.20
2022-11-20T18:55:01.631Z,22.93
2022-11-20T18:57:37.562Z,20.70
2022-11-20T19:00:09.212Z,22.73
2022-11-20T19:02:43.085Z,22.17
2022-11-20T19:05:12.075Z,23.63
2022-11-20T19:07:42.185Z,24.27
2022-11-20T19:10:11.897Z,21.80
2022-11-20T19:12:42.139Z,20.50
2022-11-20T19:15:11.637Z,21.40
2022-11-20T19:17:48.245Z,24.60
2022-11-20T19:20:16.633Z,22.37
2022-11-20T19:22:45.058Z,22.10
2022-11-20T19:25:13.362Z,24.93
2022-11-20T19:27:56.824Z,23.90
2022-11-20T19:30:25.187Z,26.53
2022-11-20T19:32:59.751Z,24.20
2022-11-20T19:35:30.649Z,23.90
2022-11-20T19:38:02.686Z,27.50
2022-11-20T19:40:38.334Z,25.83
2022-11-20T19:43:11.081Z,28.40
2022-11-20T19:45:42.687Z,25.00
2022-11-20T19:48:11.058Z,22.83
2022-11-20T19:50:39.353Z,20.47
2022-11-20T19:53:11.565Z,25.23
2022-11-20T19:55:40.196Z,21.47
2022-11-20T19:58:08.408Z,22.07
2022-11-20T20:00:45.324Z,24.83
2022-11-20T20:03:16.568Z,20.93
2022-11-20T20:05:45.258Z,24.23
2022-11-20T20:08:16.930Z,22.20
2022-11-20T20:10:45.361Z,22.13
2022-11-20T20:13:14.116Z,22.60
2022-11-20T20:15:43.921Z,26.47
2022-11-20T20:18:12.273Z,25.53
2022-11-20T20:20:40.655Z,22.47
2022-11-20T20:23:08.823Z,24.10
2022-11-20T20:25:38.043Z,23.93
2022-11-20T20:28:06.503Z,24.57
2022-11-20T20:30:34.779Z,26.53
2022-11-20T20:33:04.491Z,28.37
2022-11-20T20:35:35.747Z,23.70
2022-11-20T20:38:04.030Z,27.83
2022-11-20T20:40:32.624Z,25.67
2022-11-20T20:43:00.873Z,25.07
2022-11-20T20:45:29.065Z,23.63
2022-11-20T20:47:57.543Z,23.17
2022-11-20T20:50:27.214Z,25.63
2022-11-20T20:52:56.183Z,25.27
2022-11-20T20:55:24.342Z,27.83
2022-11-20T20:57:53.689Z,23.70
2022-11-20T21:00:21.930Z,29.10
2022-11-20T21:02:51.512Z,23.77
2022-11-20T21:05:19.795Z,24.53
2022-11-20T21:08:11.823Z,21.73
2022-11-20T21:10:39.956Z,26.73
2022-11-20T21:13:08.128Z,21.37
2022-11-20T21:15:39.728Z,23.30
2022-11-20T21:18:07.988Z,25.27
2022-11-20T21:20:54.044Z,25.97
2022-11-20T21:23:27.802Z,22.83
2022-11-20T21:25:56.401Z,27.03
2022-11-20T21:28:24.636Z,27.13
2022-11-20T21:30:52.990Z,24.17
2022-11-20T21:33:21.208Z,23.47
2022-11-20T21:35:49.461Z,27.37
2022-11-20T21:38:17.637Z,28.60
2022-11-20T21:40:47.363Z,24.80
2022-11-20T21:43:16.083Z,28.50
2022-11-20T21:45:47.213Z,22.87
2022-11-20T21:48:15.413Z,25.00
2022-11-20T21:50:43.585Z,26.93
2022-11-20T21:53:11.873Z,25.93
2022-11-20T21:55:40.073Z,24.50
2022-11-20T21:58:09.578Z,28.37
2022-11-20T22:00:37.698Z,27.07
2022-11-20T22:03:06.338Z,25.10
2022-11-20T22:05:34.454Z,27.27
2022-11-20T22:08:15.033Z,25.63
2022-11-20T22:10:43.316Z,24.40
2022-11-20T22:13:30.265Z,23.53
2022-11-20T22:16:02.927Z,25.63
2022-11-20T22:18:31.116Z,22.20
2022-11-20T22:21:04.202Z,28.07
2022-11-20T22:23:32.419Z,30.47
2022-11-20T22:26:04.896Z,30.10
2022-11-20T22:28:34.593Z,27.13
2022-11-20T22:31:03.244Z,27.03
2022-11-20T22:33:32.051Z,27.00
2022-11-20T22:36:05.784Z,24.67
2022-11-20T22:38:38.930Z,25.83
2022-11-20T22:41:08.399Z,28.90
2022-11-20T22:43:39.092Z,29.37
2022-11-20T22:46:14.412Z,26.73
2022-11-20T22:48:43.421Z,29.83
2022-11-20T22:51:12.891Z,29.20
2022-11-20T22:53:41.235Z,29.00
2022-11-20T22:56:09.722Z,29.63
2022-11-20T22:58:41.943Z,27.00
2022-11-20T23:01:11.168Z,31.10
2022-11-20T23:03:39.524Z,31.73
2022-11-20T23:06:07.891Z,27.33
2022-11-20T23:08:36.183Z,28.23
2022-11-20T23:11:05.448Z,30.33
2022-11-20T23:13:33.660Z,29.57
2022-11-20T23:16:06.545Z,33.37
2022-11-20T23:18:35.183Z,34.13
2022-11-20T23:21:06.181Z,36.50
2022-11-20T23:23:34.317Z,30.47
2022-11-20T23:26:03.322Z,33.00
2022-11-20T23:28:31.411Z,33.20
2022-11-20T23:30:59.665Z,32.97
2022-11-20T23:33:29.246Z,32.17
2022-11-20T23:35:57.704Z,34.00
2022-11-20T23:38:25.901Z,33.40
2022-11-20T23:40:54.340Z,34.13
2022-11-20T23:43:22.987Z,32.67
2022-11-20T23:45:51.977Z,32.27
2022-11-20T23:48:20.478Z,39.43
2022-11-20T23:50:53.207Z,34.47
2022-11-20T23:53:22.159Z,34.03
2022-11-20T23:55:51.229Z,36.57
2022-11-20T23:58:19.718Z,34.93
